Time;durP1;ratioP1;P1;durP2;ratioP2;P2;SDS_P1;SDS_P2;PMS_P1;PMS_P2;Temp;Humidity;BMP_temperature;BMP_pressure;BME280_temperature;BME280_humidity;BME280_pressure;Samples;Min_cycle;Max_cycle;Signal;HPM_P1;HPM_P2
2023/06/26 00:01:58;;;;;;;9.93;8.93;;;;;;;22.18;85.50;101185.75;5076046;28;20024;-70
2023/06/26 00:04:23;;;;;;;10.20;9.30;;;;;;;22.19;83.94;101179.47;5083397;28;20364;-70
2023/06/26 00:06:49;;;;;;;12.57;9.70;;;;;;;22.18;82.67;101183.94;5082814;28;20119;-70
2023/06/26 00:09:14;;;;;;;9.90;8.93;;;;;;;22.19;84.78;101182.13;5083733;28;20057;-70
2023/06/26 00:11:39;;;;;;;10.57;9.57;;;;;;;22.14;82.28;101178.91;5083447;28;20099;-70
2023/06/26 00:14:06;;;;;;;9.85;8.90;;;;;;;22.15;82.81;101172.66;5083185;28;20024;-70
2023/06/26 00:16:31;;;;;;;11.15;9.13;;;;;;;22.11;80.27;101172.00;5083644;28;20103;-70
2023/06/26 00:18:58;;;;;;;10.48;9.35;;;;;;;22.14;80.86;101173.63;5080301;28;20150;-70
2023/06/26 00:21:25;;;;;;;12.35;9.20;;;;;;;22.12;81.34;101168.38;5083434;28;20149;-70
2023/06/26 00:23:50;;;;;;;9.98;8.98;;;;;;;21.99;80.53;101175.47;5080920;28;20029;-70
2023/06/26 00:26:15;;;;;;;11.90;9.57;;;;;;;22.02;82.13;101175.25;5083093;28;20490;-70
2023/06/26 00:28:41;;;;;;;10.65;8.10;;;;;;;22.02;81.30;101167.31;5081603;28;20036;-70
2023/06/26 00:31:06;;;;;;;10.35;8.98;;;;;;;22.01;83.35;101176.22;5076094;28;20475;-70
2023/06/26 00:33:31;;;;;;;9.68;8.73;;;;;;;21.94;81.20;101170.47;5082799;28;20028;-70
2023/06/26 00:35:57;;;;;;;10.45;8.80;;;;;;;21.96;82.23;101168.53;5069696;28;20043;-69
2023/06/26 00:38:25;;;;;;;10.68;8.88;;;;;;;21.91;81.83;101168.03;5069793;28;20028;-70
2023/06/26 00:40:50;;;;;;;10.07;8.68;;;;;;;21.79;81.46;101165.31;5078201;28;20020;-70
2023/06/26 00:43:16;;;;;;;10.40;9.32;;;;;;;21.67;82.62;101148.38;5082082;28;20078;-70
2023/06/26 00:45:41;;;;;;;10.10;9.00;;;;;;;21.67;82.18;101167.78;5080818;28;20040;-70
2023/06/26 00:48:07;;;;;;;9.65;8.65;;;;;;;21.62;83.91;101169.06;5079402;28;20109;-70
2023/06/26 00:50:32;;;;;;;9.95;8.95;;;;;;;21.63;85.37;101184.88;5085824;28;20078;-70
2023/06/26 00:53:00;;;;;;;10.75;9.65;;;;;;;21.60;85.11;101176.25;5069169;28;20036;-70
2023/06/26 00:55:29;;;;;;;10.00;9.10;;;;;;;21.60;86.10;101178.91;5083687;28;20387;-70
2023/06/26 00:57:54;;;;;;;10.93;9.35;;;;;;;21.58;82.36;101175.50;5081107;28;20055;-70
2023/06/26 01:00:20;;;;;;;9.57;8.57;;;;;;;21.49;83.07;101183.13;5090396;28;20487;-70
2023/06/26 01:02:46;;;;;;;10.23;8.98;;;;;;;21.48;83.06;101184.06;5082001;28;20028;-70
2023/06/26 01:05:12;;;;;;;10.63;8.07;;;;;;;21.53;84.35;101189.06;5081962;28;20024;-70
2023/06/26 01:07:39;;;;;;;8.95;8.00;;;;;;;21.49;84.25;101185.75;5084497;28;20489;-70
2023/06/26 01:10:06;;;;;;;9.88;8.50;;;;;;;21.44;83.28;101187.00;5084939;28;20154;-70
2023/06/26 01:12:33;;;;;;;8.65;7.72;;;;;;;21.40;84.38;101196.09;5086494;28;20020;-70
2023/06/26 01:14:59;;;;;;;10.02;8.00;;;;;;;21.41;84.72;101196.00;5085601;28;20035;-70
2023/06/26 01:17:31;;;;;;;9.85;8.43;;;;;;;21.35;82.99;101195.53;5085875;28;20065;-70
2023/06/26 01:19:58;;;;;;;9.82;8.15;;;;;;;21.28;83.85;101203.84;5085456;28;20032;-70
2023/06/26 01:22:32;;;;;;;11.15;8.00;;;;;;;21.25;83.40;101188.16;5085704;28;20056;-70
2023/06/26 01:25:41;;;;;;;9.27;7.95;;;;;;;21.23;82.81;101194.50;5085521;28;20111;-70
2023/06/26 01:28:07;;;;;;;9.13;7.25;;;;;;;21.15;85.23;101202.06;5083687;28;20111;-70
2023/06/26 01:30:36;;;;;;;9.35;7.30;;;;;;;21.10;82.94;101201.50;5087222;28;20561;-70
2023/06/26 01:33:03;;;;;;;8.27;7.10;;;;;;;21.12;83.36;101202.25;5085429;28;20032;-70
2023/06/26 01:35:28;;;;;;;9.02;7.45;;;;;;;21.07;84.34;101207.84;5086909;28;20028;-70
2023/06/26 01:37:53;;;;;;;8.38;6.80;;;;;;;21.04;83.36;101206.22;5085420;28;20036;-70
2023/06/26 01:40:19;;;;;;;9.60;6.68;;;;;;;21.02;82.97;101204.59;5085542;28;20021;-69
2023/06/26 01:42:44;;;;;;;7.82;6.82;;;;;;;20.98;83.60;101208.41;5085653;28;20085;-70
2023/06/26 01:45:20;;;;;;;8.70;6.90;;;;;;;20.91;84.46;101215.88;5079900;28;20060;-70
2023/06/26 01:47:50;;;;;;;9.30;6.40;;;;;;;20.87;85.39;101210.88;5079898;28;20032;-70
2023/06/26 01:50:24;;;;;;;7.75;6.93;;;;;;;20.85;83.69;101221.53;5084285;28;20484;-70
2023/06/26 01:53:10;;;;;;;7.90;6.80;;;;;;;20.77;84.59;101219.38;5079651;28;20047;-70
2023/06/26 01:55:51;;;;;;;12.48;6.90;;;;;;;20.77;85.07;101226.47;5082529;28;20028;-70
2023/06/26 01:58:22;;;;;;;10.63;7.30;;;;;;;20.71;85.47;101225.03;5088767;28;20039;-70
2023/06/26 02:00:48;;;;;;;10.15;7.43;;;;;;;20.65;83.56;101230.69;5079131;28;20071;-70
2023/06/26 02:03:13;;;;;;;9.52;6.60;;;;;;;20.72;86.01;101241.78;5083739;28;20479;-70
2023/06/26 02:05:38;;;;;;;11.52;6.97;;;;;;;20.54;86.26;101227.84;5082810;28;20089;-70
2023/06/26 02:08:04;;;;;;;9.30;6.63;;;;;;;20.58;85.17;101245.25;5086430;28;20024;-70
2023/06/26 02:10:30;;;;;;;9.75;6.80;;;;;;;20.53;85.79;101236.69;5084795;28;20028;-70
2023/06/26 02:12:55;;;;;;;8.57;6.80;;;;;;;20.50;86.43;101236.84;5083537;28;20028;-70
2023/06/26 02:15:20;;;;;;;7.65;6.45;;;;;;;20.43;87.83;101235.50;5085698;28;20038;-70
2023/06/26 02:17:48;;;;;;;8.85;6.60;;;;;;;20.41;86.47;101232.13;5083654;28;20043;-70
2023/06/26 02:20:15;;;;;;;8.23;6.60;;;;;;;20.36;88.03;101232.38;5084825;28;20024;-70
2023/06/26 02:22:41;;;;;;;9.57;7.00;;;;;;;20.30;87.58;101230.06;5084342;28;20412;-70
2023/06/26 02:25:06;;;;;;;7.97;6.35;;;;;;;20.31;86.57;101232.66;5085028;28;20051;-70
2023/06/26 02:27:31;;;;;;;7.05;5.80;;;;;;;20.29;81.77;101233.66;5084152;28;20106;-70
2023/06/26 02:29:57;;;;;;;8.55;6.07;;;;;;;20.23;86.60;101242.81;5083876;28;20048;-70
2023/06/26 02:32:22;;;;;;;6.45;5.57;;;;;;;20.19;85.84;101233.34;5085220;28;20074;-70
2023/06/26 02:34:47;;;;;;;7.35;5.45;;;;;;;20.11;83.90;101236.44;5084651;28;20044;-70
2023/06/26 02:37:13;;;;;;;9.00;5.63;;;;;;;20.11;84.75;101243.53;5084342;28;20392;-69
2023/06/26 02:39:38;;;;;;;13.38;5.70;;;;;;;20.01;84.84;101244.97;5086199;28;20020;-70
2023/06/26 02:42:04;;;;;;;7.75;5.30;;;;;;;19.91;85.13;101249.94;5082096;28;20031;-70
2023/06/26 02:44:29;;;;;;;9.38;5.68;;;;;;;19.87;85.09;101229.88;5083350;28;20028;-70
2023/06/26 02:46:54;;;;;;;11.20;5.28;;;;;;;19.85;82.43;101245.84;5083509;28;20068;-70
2023/06/26 02:49:20;;;;;;;7.43;4.93;;;;;;;19.86;85.37;101254.63;5083253;28;20028;-70
2023/06/26 02:51:45;;;;;;;6.93;4.90;;;;;;;19.79;83.19;101262.06;5084600;28;20028;-70
2023/06/26 02:54:10;;;;;;;8.35;5.15;;;;;;;19.79;85.75;101262.06;5082667;28;20106;-70
2023/06/26 02:56:36;;;;;;;6.80;5.43;;;;;;;19.75;84.89;101273.75;5084002;28;20023;-70
2023/06/26 02:59:01;;;;;;;7.13;4.82;;;;;;;19.78;86.02;101272.72;5085387;28;20036;-70
2023/06/26 03:01:26;;;;;;;8.52;5.68;;;;;;;19.74;84.63;101268.53;5077530;28;20036;-70
2023/06/26 03:03:52;;;;;;;6.88;5.00;;;;;;;19.69;85.90;101271.44;5087428;28;20051;-70
2023/06/26 03:06:18;;;;;;;7.65;5.35;;;;;;;19.66;86.80;101287.47;5081436;28;20020;-70
2023/06/26 03:08:43;;;;;;;9.65;5.38;;;;;;;19.60;86.43;101283.34;5087195;28;20028;-70
2023/06/26 03:11:11;;;;;;;10.07;5.20;;;;;;;19.59;84.94;101288.72;5080893;28;20028;-70
2023/06/26 03:13:37;;;;;;;9.20;5.20;;;;;;;19.57;87.95;101287.94;5080658;28;20531;-70
2023/06/26 03:16:03;;;;;;;8.85;5.35;;;;;;;19.58;88.77;101294.94;5078172;28;20060;-70
2023/06/26 03:18:28;;;;;;;10.65;5.68;;;;;;;19.52;87.44;101289.97;5082790;28;20106;-70
2023/06/26 03:20:55;;;;;;;9.25;5.47;;;;;;;19.45;88.80;101286.81;5081860;28;20165;-70
2023/06/26 03:23:21;;;;;;;9.38;5.47;;;;;;;19.46;90.11;101290.31;5084601;28;20533;-70
2023/06/26 03:25:48;;;;;;;10.30;5.38;;;;;;;19.44;89.82;101293.03;5083495;28;20483;-70
2023/06/26 03:28:13;;;;;;;10.35;5.07;;;;;;;19.39;90.19;101288.00;5083988;28;20036;-70
2023/06/26 03:30:39;;;;;;;9.10;5.43;;;;;;;19.32;92.04;101293.69;5079681;28;20502;-70
2023/06/26 03:33:07;;;;;;;11.63;5.05;;;;;;;19.30;92.14;101280.56;5083400;28;20103;-70
2023/06/26 03:35:33;;;;;;;10.52;5.90;;;;;;;19.35;92.37;101290.88;5083844;28;20028;-70
2023/06/26 03:37:58;;;;;;;9.25;5.53;;;;;;;19.35;90.98;101281.16;5082818;28;20468;-70
2023/06/26 03:40:24;;;;;;;7.50;5.15;;;;;;;19.37;90.79;101281.94;5083756;28;20456;-70
2023/06/26 03:42:49;;;;;;;11.23;5.90;;;;;;;19.32;91.88;101277.81;5083596;28;20036;-70
2023/06/26 03:45:15;;;;;;;10.80;5.47;;;;;;;19.32;92.84;101286.59;5080801;28;20028;-70
2023/06/26 03:47:40;;;;;;;11.20;5.20;;;;;;;19.31;93.87;101291.97;5083579;28;20035;-70
2023/06/26 03:50:06;;;;;;;10.90;5.82;;;;;;;19.24;94.49;101291.44;5083430;28;20143;-70
2023/06/26 03:52:31;;;;;;;9.90;5.53;;;;;;;19.22;95.11;101298.59;5082128;28;20031;-70
2023/06/26 03:55:00;;;;;;;10.20;5.50;;;;;;;19.21;95.30;101306.63;5084057;28;20529;-70
2023/06/26 03:57:28;;;;;;;10.85;5.63;;;;;;;19.26;95.33;101310.75;5074465;28;20040;-70
2023/06/26 03:59:53;;;;;;;17.17;5.75;;;;;;;19.18;96.55;101294.41;5083678;28;20032;-70
2023/06/26 04:02:18;;;;;;;12.23;5.72;;;;;;;19.26;96.35;101302.81;5079144;28;20111;-70
2023/06/26 04:04:44;;;;;;;10.13;5.63;;;;;;;19.29;96.88;101310.56;5086951;28;20024;-70
2023/06/26 04:07:10;;;;;;;11.35;5.88;;;;;;;19.29;97.81;101307.94;5083662;28;20031;-70
2023/06/26 04:09:35;;;;;;;13.68;6.28;;;;;;;19.27;97.89;101319.50;5082085;28;20391;-70
2023/06/26 04:12:03;;;;;;;10.82;6.07;;;;;;;19.25;96.72;101326.66;5082987;28;20028;-70
2023/06/26 04:14:29;;;;;;;12.68;5.80;;;;;;;19.29;98.06;101339.66;5082665;28;20070;-70
2023/06/26 04:16:54;;;;;;;11.70;6.03;;;;;;;19.28;98.41;101326.50;5083505;28;20028;-70
2023/06/26 04:19:19;;;;;;;13.88;6.65;;;;;;;19.29;99.13;101331.72;5084532;28;20421;-70
2023/06/26 04:21:45;;;;;;;14.10;6.40;;;;;;;19.29;98.58;101344.94;5081000;28;20031;-70
2023/06/26 04:24:10;;;;;;;12.23;5.72;;;;;;;19.34;99.73;101337.59;5087399;28;20535;-70
2023/06/26 04:26:35;;;;;;;13.70;6.55;;;;;;;19.46;100.00;101344.06;5078961;28;20028;-70
2023/06/26 04:29:01;;;;;;;15.85;6.78;;;;;;;19.54;98.31;101333.06;5088150;28;20044;-70
2023/06/26 04:31:27;;;;;;;12.65;6.28;;;;;;;19.67;98.56;101338.59;5080245;28;20486;-70
2023/06/26 04:33:54;;;;;;;12.68;6.05;;;;;;;19.80;99.85;101345.78;5090412;28;20046;-70
2023/06/26 04:36:20;;;;;;;11.52;5.82;;;;;;;19.91;98.28;101344.34;5084001;28;20415;-70
2023/06/26 04:38:45;;;;;;;15.43;6.45;;;;;;;19.95;98.36;101344.09;5090637;28;20020;-70
2023/06/26 04:41:11;;;;;;;16.52;6.03;;;;;;;19.91;98.89;101347.81;5084476;28;20034;-70
2023/06/26 04:43:36;;;;;;;17.00;6.40;;;;;;;19.87;98.51;101352.44;5087292;28;20054;-70
2023/06/26 04:46:05;;;;;;;15.10;6.38;;;;;;;19.82;100.00;101359.78;5084083;28;20032;-70
2023/06/26 04:48:31;;;;;;;20.15;6.47;;;;;;;19.71;99.17;101348.91;5077370;28;20025;-70
2023/06/26 04:50:56;;;;;;;16.95;6.90;;;;;;;19.79;100.00;101370.53;5083779;28;20111;-70
2023/06/26 04:53:25;;;;;;;13.70;6.57;;;;;;;19.76;100.00;101368.03;5090131;28;20491;-70
2023/06/26 04:55:51;;;;;;;21.35;6.32;;;;;;;19.80;100.00;101366.94;5083706;28;20541;-70
2023/06/26 04:58:17;;;;;;;19.90;6.47;;;;;;;19.88;100.00;101377.97;5090857;28;20043;-70
2023/06/26 05:00:43;;;;;;;18.98;6.70;;;;;;;19.97;100.00;101362.53;5082794;28;20040;-70
2023/06/26 05:03:13;;;;;;;17.98;6.85;;;;;;;20.01;99.43;101372.00;5086753;28;20047;-70
2023/06/26 05:05:38;;;;;;;14.70;6.20;;;;;;;20.01;100.00;101370.22;5084194;28;20024;-70
2023/06/26 05:08:30;;;;;;;16.25;6.07;;;;;;;20.06;99.41;101375.25;5087732;28;20034;-70
2023/06/26 05:10:57;;;;;;;14.85;6.18;;;;;;;19.96;99.71;101382.00;5079032;28;20039;-70
2023/06/26 05:13:23;;;;;;;17.48;6.65;;;;;;;19.92;99.33;101383.97;5090113;28;20077;-70
2023/06/26 05:15:49;;;;;;;16.63;6.40;;;;;;;19.80;100.00;101385.47;5080256;28;20027;-70
2023/06/26 05:18:14;;;;;;;14.23;5.90;;;;;;;19.71;100.00;101390.38;5088190;28;20463;-70
2023/06/26 05:20:39;;;;;;;12.07;5.90;;;;;;;19.57;100.00;101389.28;5086364;28;20064;-70
2023/06/26 05:23:05;;;;;;;11.57;5.28;;;;;;;19.49;100.00;101390.63;5085202;28;20015;-70
2023/06/26 05:25:32;;;;;;;15.15;5.97;;;;;;;19.58;100.00;101393.63;5085822;28;20459;-70
2023/06/26 05:27:58;;;;;;;20.05;6.80;;;;;;;19.62;100.00;101387.28;5085908;28;20073;-70
2023/06/26 05:30:25;;;;;;;13.07;5.32;;;;;;;19.78;100.00;101403.22;5082007;28;20183;-70
2023/06/26 05:32:51;;;;;;;13.60;5.43;;;;;;;20.09;99.30;101398.91;5085647;28;20040;-70
2023/06/26 05:35:17;;;;;;;15.60;5.90;;;;;;;20.19;98.06;101396.63;5086134;28;20020;-70
2023/06/26 05:37:44;;;;;;;13.98;5.85;;;;;;;19.97;95.27;101391.63;5086172;28;20096;-70
2023/06/26 05:40:10;;;;;;;16.30;5.75;;;;;;;19.91;94.74;101399.91;5085660;28;20468;-70
2023/06/26 05:42:35;;;;;;;16.05;5.95;;;;;;;19.93;95.06;101408.63;5085430;28;20035;-70
2023/06/26 05:45:03;;;;;;;15.18;4.97;;;;;;;19.91;95.96;101413.97;5084738;28;20024;-70
2023/06/26 05:47:28;;;;;;;17.45;5.75;;;;;;;19.89;95.54;101415.88;5083315;28;20032;-70
2023/06/26 05:49:54;;;;;;;14.75;5.53;;;;;;;19.82;93.48;101407.41;5085162;28;20494;-70
2023/06/26 05:52:19;;;;;;;18.92;5.88;;;;;;;19.82;94.53;101420.63;5084443;28;20040;-70
2023/06/26 05:54:45;;;;;;;13.55;4.88;;;;;;;19.81;95.58;101424.19;5085837;28;20032;-70
2023/06/26 05:57:13;;;;;;;15.60;5.07;;;;;;;19.93;94.28;101432.44;5084043;28;20040;-70
2023/06/26 05:59:41;;;;;;;12.93;5.35;;;;;;;19.96;96.11;101422.53;5085382;28;20503;-69
2023/06/26 06:02:06;;;;;;;12.68;4.72;;;;;;;20.03;96.31;101431.00;5083094;28;20039;-69
2023/06/26 06:04:31;;;;;;;15.25;5.03;;;;;;;20.13;93.84;101440.16;5083412;28;20024;-70
2023/06/26 06:06:57;;;;;;;11.10;4.15;;;;;;;20.24;93.51;101444.84;5085553;28;20023;-69
2023/06/26 06:09:22;;;;;;;13.98;4.55;;;;;;;20.22;91.99;101442.31;5084915;28;20033;-70
2023/06/26 06:11:47;;;;;;;11.68;4.63;;;;;;;20.21;91.88;101445.03;5086223;28;20036;-70
2023/06/26 06:14:15;;;;;;;11.52;4.45;;;;;;;20.15;91.78;101451.53;5083794;28;20020;-69
2023/06/26 06:16:43;;;;;;;11.90;4.53;;;;;;;20.14;92.10;101454.25;5082987;28;20031;-70
2023/06/26 06:19:11;;;;;;;10.95;3.95;;;;;;;20.09;92.63;101443.91;5087839;28;20549;-69
2023/06/26 06:21:36;;;;;;;15.50;4.38;;;;;;;20.15;91.89;101448.88;5081754;28;20484;-69
2023/06/26 06:24:02;;;;;;;12.13;4.20;;;;;;;20.28;92.21;101457.88;5084758;28;20107;-69
2023/06/26 06:26:27;;;;;;;15.88;4.25;;;;;;;20.41;90.22;101471.28;5083237;28;20024;-70
2023/06/26 06:28:53;;;;;;;11.65;3.85;;;;;;;20.44;90.32;101464.97;5090067;28;20036;-70
2023/06/26 06:31:18;;;;;;;12.73;3.53;;;;;;;20.51;89.62;101471.69;5082128;28;20112;-69
2023/06/26 06:33:43;;;;;;;11.32;3.30;;;;;;;20.55;88.84;101463.47;5088480;28;20026;-69
2023/06/26 06:36:09;;;;;;;11.18;3.95;;;;;;;20.63;87.55;101464.81;5088116;28;20383;-69
2023/06/26 06:38:34;;;;;;;9.50;3.50;;;;;;;20.75;87.01;101475.59;5086465;28;20028;-69
2023/06/26 06:41:00;;;;;;;12.20;3.35;;;;;;;20.85;86.86;101464.47;5084257;28;20058;-69
2023/06/26 06:43:25;;;;;;;7.90;3.28;;;;;;;20.90;84.56;101475.69;5081414;28;20100;-70
2023/06/26 06:45:50;;;;;;;12.52;3.90;;;;;;;20.94;82.78;101480.72;5076634;28;20036;-69
2023/06/26 06:48:15;;;;;;;10.02;3.60;;;;;;;20.99;83.76;101486.63;5081614;28;20473;-69
2023/06/26 06:50:41;;;;;;;9.07;3.45;;;;;;;21.01;82.18;101502.44;5083886;28;20037;-69
2023/06/26 06:53:07;;;;;;;10.65;3.20;;;;;;;21.03;82.78;101495.25;5087863;28;20386;-70
2023/06/26 06:55:32;;;;;;;9.80;3.20;;;;;;;21.02;82.26;101489.06;5081454;28;20103;-69
2023/06/26 06:57:58;;;;;;;8.95;3.00;;;;;;;21.05;82.34;101501.31;5086709;28;20118;-70
2023/06/26 07:00:23;;;;;;;9.55;3.40;;;;;;;21.11;81.65;101498.31;5082773;28;20464;-69
2023/06/26 07:02:48;;;;;;;8.85;3.05;;;;;;;21.19;83.08;101505.81;5082991;28;20032;-69
2023/06/26 07:05:14;;;;;;;9.57;3.20;;;;;;;21.34;79.51;101518.19;5084420;28;20064;-69
2023/06/26 07:07:39;;;;;;;9.85;3.33;;;;;;;21.28;78.91;101518.53;5082068;28;20459;-69
2023/06/26 07:10:10;;;;;;;8.18;3.30;;;;;;;21.32;79.69;101514.78;5084822;28;20445;-70
2023/06/26 07:12:36;;;;;;;13.48;3.38;;;;;;;21.61;81.74;101528.16;5083702;28;20020;-69
2023/06/26 07:15:06;;;;;;;6.78;3.33;;;;;;;21.83;77.51;101528.59;5083708;28;20486;-69
2023/06/26 07:17:35;;;;;;;5.97;3.20;;;;;;;21.99;74.90;101533.84;5083593;28;20464;-70
2023/06/26 07:20:04;;;;;;;7.53;3.15;;;;;;;22.12;74.91;101528.66;5069814;28;20040;-69
2023/06/26 07:22:29;;;;;;;9.50;3.20;;;;;;;22.26;74.96;101531.34;5081541;28;20028;-69
2023/06/26 07:24:55;;;;;;;10.13;3.13;;;;;;;22.39;74.15;101529.63;5083355;28;20388;-69
2023/06/26 07:27:23;;;;;;;9.13;3.20;;;;;;;22.38;72.38;101540.34;5083928;28;20070;-69
2023/06/26 07:29:48;;;;;;;10.30;3.10;;;;;;;22.16;73.61;101540.81;5082905;28;20044;-69
2023/06/26 07:32:16;;;;;;;5.40;2.53;;;;;;;21.93;74.32;101548.34;5087135;28;20388;-70
2023/06/26 07:34:41;;;;;;;8.50;2.97;;;;;;;21.98;73.83;101554.22;5084864;28;20055;-69
2023/06/26 07:37:07;;;;;;;7.38;3.03;;;;;;;22.26;73.62;101551.72;5082192;28;20029;-70
2023/06/26 07:39:32;;;;;;;9.43;3.03;;;;;;;22.43;71.87;101548.88;5084119;28;20035;-70
2023/06/26 07:42:00;;;;;;;5.28;2.60;;;;;;;22.56;72.90;101556.94;5080516;28;20021;-70
2023/06/26 07:44:25;;;;;;;6.55;2.55;;;;;;;22.45;72.26;101573.56;5079665;28;20024;-69
2023/06/26 07:46:51;;;;;;;6.45;3.28;;;;;;;22.34;74.93;101573.38;5084241;28;20039;-69
2023/06/26 07:49:16;;;;;;;8.23;2.95;;;;;;;22.39;74.35;101564.16;5081691;28;20107;-69
2023/06/26 07:51:41;;;;;;;8.52;2.75;;;;;;;22.38;71.19;101565.13;5083752;28;20115;-69
2023/06/26 07:54:10;;;;;;;6.72;2.80;;;;;;;22.31;73.02;101582.38;5082840;28;20045;-70
2023/06/26 07:56:58;;;;;;;4.80;2.40;;;;;;;22.25;69.96;101571.28;5068256;28;20024;-69
2023/06/26 07:59:25;;;;;;;4.30;2.40;;;;;;;22.20;72.34;101577.72;5082481;28;20036;-70
2023/06/26 08:01:51;;;;;;;6.30;2.40;;;;;;;22.40;68.88;101587.13;5082504;28;20484;-69
2023/06/26 08:04:22;;;;;;;7.68;2.42;;;;;;;22.63;67.62;101580.41;5082199;28;20020;-69
2023/06/26 08:06:49;;;;;;;4.05;2.33;;;;;;;22.89;68.77;101575.25;5069752;28;20061;-72
2023/06/26 08:09:14;;;;;;;6.25;2.70;;;;;;;23.23;66.35;101592.56;5082574;28;20020;-71
2023/06/26 08:11:39;;;;;;;5.82;1.90;;;;;;;23.31;63.96;101586.72;5083936;28;20032;-71
2023/06/26 08:14:05;;;;;;;7.00;1.90;;;;;;;23.27;61.15;101591.41;5090390;28;20025;-70
2023/06/26 08:16:30;;;;;;;8.05;2.05;;;;;;;23.35;66.74;101597.09;5084409;28;20020;-70
2023/06/26 08:18:55;;;;;;;2.88;1.70;;;;;;;23.22;63.10;101587.34;5091959;28;20055;-70
2023/06/26 08:21:21;;;;;;;3.63;1.70;;;;;;;22.90;60.80;101592.91;5084356;28;20017;-70
2023/06/26 08:23:46;;;;;;;5.20;2.15;;;;;;;22.57;63.19;101599.38;5092494;28;20032;-70
2023/06/26 08:26:11;;;;;;;4.22;1.55;;;;;;;22.33;60.80;101588.44;5083683;28;20025;-70
2023/06/26 08:28:37;;;;;;;6.70;1.80;;;;;;;22.29;59.57;101602.00;5091369;28;20043;-70
2023/06/26 08:31:02;;;;;;;3.25;1.67;;;;;;;22.24;58.23;101612.06;5085329;28;20035;-70
2023/06/26 08:33:28;;;;;;;2.65;1.50;;;;;;;22.26;60.58;101610.16;5088451;28;20024;-70
2023/06/26 08:35:53;;;;;;;4.70;1.88;;;;;;;22.24;57.14;101598.78;5087085;28;20388;-70
2023/06/26 08:38:21;;;;;;;4.72;1.52;;;;;;;22.29;61.30;101602.00;5083127;28;20032;-70
2023/06/26 08:40:46;;;;;;;6.78;1.67;;;;;;;22.43;58.23;101592.25;5088429;28;20236;-69
2023/06/26 08:43:12;;;;;;;4.03;1.52;;;;;;;22.66;60.78;101604.13;5085420;28;20520;-70
2023/06/26 08:45:40;;;;;;;6.88;1.73;;;;;;;22.88;59.17;101608.94;5078569;28;20052;-70
2023/06/26 08:48:09;;;;;;;3.95;1.70;;;;;;;22.94;57.67;101613.03;5091375;28;20028;-70
2023/06/26 08:50:37;;;;;;;4.38;1.83;;;;;;;22.83;59.94;101605.72;5083771;28;20021;-70
2023/06/26 08:53:24;;;;;;;3.75;1.80;;;;;;;22.87;58.33;101611.69;5089959;28;20040;-70
2023/06/26 08:55:52;;;;;;;8.95;1.90;;;;;;;22.89;59.50;101601.84;5081648;28;20112;-70
2023/06/26 08:58:18;;;;;;;5.50;1.85;;;;;;;23.06;61.39;101622.06;5090987;28;20051;-70
2023/06/26 09:00:44;;;;;;;4.13;1.30;;;;;;;23.09;55.17;101624.53;5082487;28;20043;-70
2023/06/26 09:03:09;;;;;;;3.58;1.45;;;;;;;23.09;56.06;101614.75;5089297;28;20104;-70
2023/06/26 09:05:35;;;;;;;5.20;1.30;;;;;;;23.19;53.42;101624.78;5084878;28;20169;-70
2023/06/26 09:08:00;;;;;;;4.75;1.50;;;;;;;23.17;52.56;101634.66;5081451;28;20030;-70
2023/06/26 09:10:26;;;;;;;5.90;1.50;;;;;;;23.42;54.11;101625.97;5085867;28;20429;-70
2023/06/26 09:12:55;;;;;;;4.95;1.50;;;;;;;23.65;54.26;101630.63;5086451;28;20020;-70
2023/06/26 09:15:20;;;;;;;2.83;1.48;;;;;;;23.98;53.76;101629.38;5091178;28;20024;-70
2023/06/26 09:17:48;;;;;;;3.97;1.67;;;;;;;24.23;51.69;101634.72;5085761;28;20031;-70
2023/06/26 09:20:14;;;;;;;3.78;1.42;;;;;;;24.05;52.00;101641.31;5085081;28;20468;-70
2023/06/26 09:22:42;;;;;;;6.93;1.80;;;;;;;23.47;53.86;101622.03;5084975;28;20032;-70
2023/06/26 09:25:08;;;;;;;4.70;1.63;;;;;;;23.48;52.79;101636.19;5086541;28;20028;-70
2023/06/26 09:27:35;;;;;;;5.53;1.90;;;;;;;23.40;51.07;101636.69;5085709;28;20028;-70
2023/06/26 09:30:06;;;;;;;3.80;1.40;;;;;;;23.51;52.77;101650.16;5085908;28;20040;-70
2023/06/26 09:32:35;;;;;;;6.15;1.55;;;;;;;23.56;49.42;101637.41;5086282;28;20024;-70
2023/06/26 09:35:02;;;;;;;3.22;1.55;;;;;;;23.67;50.37;101657.13;5082891;28;20055;-70
2023/06/26 09:37:28;;;;;;;4.00;1.58;;;;;;;23.89;50.45;101649.47;5085980;28;20039;-70
2023/06/26 09:39:54;;;;;;;5.68;1.63;;;;;;;23.90;51.55;101658.31;5083613;28;20020;-70
2023/06/26 09:42:20;;;;;;;2.88;1.73;;;;;;;23.69;50.26;101666.75;5085101;28;20062;-70
2023/06/26 09:44:46;;;;;;;4.22;1.35;;;;;;;23.84;51.25;101670.25;5081829;28;20027;-70
2023/06/26 09:47:11;;;;;;;4.47;1.63;;;;;;;23.64;51.40;101663.50;5083164;28;20491;-70
2023/06/26 09:49:41;;;;;;;2.70;1.40;;;;;;;23.54;51.90;101675.69;5082710;28;20066;-70
2023/06/26 09:52:06;;;;;;;2.65;1.40;;;;;;;23.71;51.30;101677.31;5084786;28;20027;-70
2023/06/26 09:54:32;;;;;;;3.42;1.25;;;;;;;24.10;51.99;101680.94;5085896;28;20030;-70
2023/06/26 09:57:16;;;;;;;2.35;1.15;;;;;;;24.22;48.02;101680.97;5085371;28;20028;-70
2023/06/26 09:59:45;;;;;;;4.13;1.45;;;;;;;24.16;46.67;101680.53;5081965;28;20032;-70
2023/06/26 10:02:11;;;;;;;7.57;1.50;;;;;;;24.33;50.14;101669.59;5085671;28;20025;-70
2023/06/26 10:04:37;;;;;;;5.53;1.60;;;;;;;24.41;45.43;101666.44;5083175;28;20025;-70
2023/06/26 10:07:10;;;;;;;6.10;1.30;;;;;;;24.55;46.45;101684.97;5085513;28;20051;-70
2023/06/26 10:09:40;;;;;;;3.17;1.23;;;;;;;24.74;45.63;101689.88;5084266;28;20491;-70
2023/06/26 10:12:08;;;;;;;3.70;1.20;;;;;;;25.11;45.45;101695.28;5085697;28;20028;-70
2023/06/26 10:14:36;;;;;;;2.70;1.13;;;;;;;24.70;42.21;101691.91;5084821;28;20030;-70
2023/06/26 10:17:04;;;;;;;3.20;1.20;;;;;;;24.06;42.88;101689.13;5084951;28;20032;-69
2023/06/26 10:19:33;;;;;;;13.70;2.10;;;;;;;23.99;46.34;101687.00;5085565;28;20081;-70
2023/06/26 10:21:59;;;;;;;2.35;1.08;;;;;;;24.26;43.82;101686.94;5071572;28;20039;-70
2023/06/26 10:24:31;;;;;;;3.92;1.60;;;;;;;24.56;46.86;101699.16;5084910;28;20024;-70
2023/06/26 10:27:08;;;;;;;3.03;1.35;;;;;;;24.81;42.50;101690.31;5083103;28;20059;-70
2023/06/26 10:29:35;;;;;;;4.03;1.45;;;;;;;24.98;44.06;101693.50;5083115;28;20046;-70
2023/06/26 10:32:04;;;;;;;5.30;2.15;;;;;;;24.99;42.84;101695.22;5082511;28;20060;-70
2023/06/26 10:34:29;;;;;;;4.68;1.70;;;;;;;25.18;43.15;101696.59;5084723;28;20403;-70
2023/06/26 10:37:03;;;;;;;4.07;1.40;;;;;;;25.31;42.23;101700.09;5082573;28;20043;-70
2023/06/26 10:39:49;;;;;;;5.28;1.40;;;;;;;25.61;42.12;101706.84;5083908;28;20073;-69
2023/06/26 10:42:17;;;;;;;3.67;1.50;;;;;;;25.67;42.74;101707.25;5083529;28;20035;-70
2023/06/26 10:44:46;;;;;;;5.22;1.58;;;;;;;25.77;42.57;101707.41;5080922;28;20039;-70
2023/06/26 10:47:32;;;;;;;4.22;1.30;;;;;;;25.59;43.24;101714.94;5083867;28;20035;-70
2023/06/26 10:50:18;;;;;;;2.63;1.15;;;;;;;25.36;41.83;101713.09;5084799;28;20064;-70
2023/06/26 10:52:43;;;;;;;2.65;1.48;;;;;;;25.03;43.35;101722.50;5078579;28;20107;-70
2023/06/26 10:55:09;;;;;;;3.90;1.58;;;;;;;25.25;42.42;101721.03;5083438;28;20136;-70
2023/06/26 10:57:36;;;;;;;2.75;1.63;;;;;;;25.02;42.48;101722.63;5081694;28;20429;-70
2023/06/26 11:00:10;;;;;;;4.07;1.38;;;;;;;24.44;43.06;101711.53;5083923;28;20035;-70
2023/06/26 11:02:55;;;;;;;4.00;1.40;;;;;;;24.27;43.25;101717.97;5068167;28;20086;-70
2023/06/26 11:05:28;;;;;;;2.00;1.40;;;;;;;24.28;42.44;101730.31;5083695;28;20067;-70
2023/06/26 11:08:03;;;;;;;;;;;;;;;24.55;42.96;101737.44;5083677;28;20032;-70
2023/06/26 11:10:28;;;;;;;2.53;1.30;;;;;;;24.80;42.81;101737.47;5083945;28;19995;-70
2023/06/26 11:12:57;;;;;;;4.65;1.60;;;;;;;24.76;41.17;101739.50;5080366;28;20532;-70
2023/06/26 11:15:28;;;;;;;4.63;1.50;;;;;;;25.09;42.04;101729.25;5085396;28;20054;-70
2023/06/26 11:17:54;;;;;;;3.97;1.33;;;;;;;25.10;41.17;101745.13;5084191;28;20030;-70
2023/06/26 11:20:20;;;;;;;2.45;1.30;;;;;;;25.06;42.14;101737.47;5077141;28;20070;-70
2023/06/26 11:22:46;;;;;;;4.20;1.42;;;;;;;25.30;41.66;101733.06;5084278;28;20056;-70